createdAt,value
2022-10-31T00:00:24.947Z,98594.94
2022-10-31T00:02:28.148Z,98595.03
2022-10-31T00:04:31.542Z,98597.78
2022-10-31T00:06:34.758Z,98595.25
2022-10-31T00:08:36.983Z,98593.72
2022-10-31T00:10:44.813Z,98595.69
2022-10-31T00:12:47.979Z,98595.69
2022-10-31T00:14:51.120Z,98590.56
2022-10-31T00:16:54.487Z,98598.53
2022-10-31T00:18:59.153Z,98600.44
2022-10-31T00:21:03.794Z,98596.16
2022-10-31T00:23:07.956Z,98594.47
2022-10-31T00:25:10.936Z,98592.91
2022-10-31T00:27:15.480Z,98591.34
2022-10-31T00:29:18.705Z,98591.56
2022-10-31T00:31:21.761Z,98592.81
2022-10-31T00:33:26.419Z,98587.69
2022-10-31T00:35:31.073Z,98586.00
2022-10-31T00:37:34.295Z,98586.97
2022-10-31T00:39:37.413Z,98592.31
2022-10-31T00:41:40.460Z,98590.63
2022-10-31T00:43:50.190Z,98591.56
2022-10-31T00:45:53.352Z,98591.78
2022-10-31T00:47:56.826Z,98598.91
2022-10-31T00:50:00.100Z,98599.94
2022-10-31T00:52:03.295Z,98601.84
2022-10-31T00:54:06.442Z,98595.03
2022-10-31T00:56:09.486Z,98593.50
2022-10-31T00:58:12.539Z,98594.41
2022-10-31T01:00:18.018Z,98588.47
2022-10-31T01:02:21.292Z,98590.38
2022-10-31T01:04:25.894Z,98585.19
2022-10-31T01:06:29.148Z,98586.97
2022-10-31T01:08:33.999Z,98592.19
2022-10-31T01:10:37.303Z,98593.25
2022-10-31T01:12:40.771Z,98585.50
2022-10-31T01:14:45.353Z,98579.41
2022-10-31T01:16:49.748Z,98579.41
2022-10-31T01:18:53.123Z,98580.19
2022-10-31T01:21:03.198Z,98576.69
2022-10-31T01:23:06.184Z,98575.03
2022-10-31T01:25:10.390Z,98578.81
2022-10-31T01:27:13.630Z,98584.25
2022-10-31T01:29:17.058Z,98582.56
2022-10-31T01:31:21.774Z,98574.00
2022-10-31T01:33:26.574Z,98590.41
2022-10-31T01:35:30.599Z,98587.91
2022-10-31T01:37:33.618Z,98580.16
2022-10-31T01:39:36.613Z,98581.13
2022-10-31T01:41:41.638Z,98581.03
2022-10-31T01:43:46.669Z,98580.06
2022-10-31T01:45:53.541Z,98574.19
2022-10-31T01:47:56.803Z,98568.97
2022-10-31T01:50:03.222Z,98577.53
2022-10-31T01:52:07.650Z,98567.06
2022-10-31T01:54:15.064Z,98572.41
2022-10-31T01:56:18.831Z,98564.66
2022-10-31T01:58:25.406Z,98569.19
2022-10-31T02:00:28.403Z,98566.66
2022-10-31T02:02:32.451Z,98566.78
2022-10-31T02:04:36.329Z,98566.88
2022-10-31T02:06:47.784Z,98569.59
2022-10-31T02:08:51.052Z,98579.25
2022-10-31T02:10:54.148Z,98569.72
2022-10-31T02:12:59.331Z,98572.44
2022-10-31T02:15:02.866Z,98573.34
2022-10-31T02:17:05.893Z,98573.56
2022-10-31T02:19:10.451Z,98568.47
2022-10-31T02:21:17.687Z,98568.56
2022-10-31T02:23:53.515Z,98566.88
2022-10-31T02:26:13.755Z,98562.59
2022-10-31T02:28:33.809Z,98566.28
2022-10-31T02:30:43.370Z,98560.19
2022-10-31T02:32:55.249Z,98560.28
2022-10-31T02:35:01.384Z,98564.69
2022-10-31T02:37:10.971Z,98565.63
2022-10-31T02:39:16.351Z,98562.06
2022-10-31T02:41:23.726Z,98577.75
2022-10-31T02:43:33.277Z,98573.56
2022-10-31T02:45:42.909Z,98574.63
2022-10-31T02:47:47.062Z,98565.94
2022-10-31T02:49:57.721Z,98563.41
2022-10-31T02:52:00.892Z,98562.59
2022-10-31T02:54:03.953Z,98572.94
2022-10-31T02:56:11.196Z,98565.09
2022-10-31T03:00:21.258Z,98575.78
2022-10-31T03:02:48.774Z,98564.47
2022-10-31T03:05:03.579Z,98562.69
2022-10-31T03:07:10.961Z,98569.59
2022-10-31T03:09:22.885Z,98566.22
2022-10-31T03:11:32.068Z,98565.50
2022-10-31T03:13:37.592Z,98567.31
2022-10-31T03:15:43.800Z,98566.53
2022-10-31T03:17:53.819Z,98564.88
2022-10-31T03:20:00.877Z,98555.34
2022-10-31T03:22:06.779Z,98559.75
2022-10-31T03:24:11.790Z,98563.31
2022-10-31T03:26:17.507Z,98558.06
2022-10-31T03:28:24.249Z,98563.50
2022-10-31T03:30:27.310Z,98562.69
2022-10-31T03:32:36.886Z,98563.50
2022-10-31T03:34:42.082Z,98572.28
2022-10-31T03:36:46.945Z,98563.72
2022-10-31T03:38:50.001Z,98569.16
2022-10-31T03:40:56.137Z,98566.53
2022-10-31T03:43:02.128Z,98567.47
2022-10-31T03:45:08.722Z,98558.91
2022-10-31T03:47:12.112Z,98570.31
2022-10-31T03:49:15.598Z,98568.63
2022-10-31T03:51:24.978Z,98566.84
2022-10-31T03:53:34.835Z,98564.34
2022-10-31T03:55:42.398Z,98568.84
2022-10-31T03:57:53.773Z,98569.75
2022-10-31T04:00:01.214Z,98565.69
2022-10-31T04:02:07.511Z,98565.69
2022-10-31T04:04:11.567Z,98568.50
2022-10-31T04:06:16.917Z,98556.38
2022-10-31T04:08:24.022Z,98555.53
2022-10-31T04:10:32.890Z,98555.53
2022-10-31T04:12:37.669Z,98554.78
2022-10-31T04:14:51.530Z,98563.50
2022-10-31T04:16:54.662Z,98560.00
2022-10-31T04:19:04.966Z,98552.28
2022-10-31T04:21:09.301Z,98554.06
2022-10-31T04:23:18.954Z,98555.75
2022-10-31T04:25:22.127Z,98548.00
2022-10-31T04:27:26.914Z,98546.31
2022-10-31T04:29:30.040Z,98544.53
2022-10-31T04:31:34.120Z,98548.00
2022-10-31T04:33:37.060Z,98548.00
2022-10-31T04:35:40.025Z,98551.53
2022-10-31T04:37:43.088Z,98548.09
2022-10-31T04:39:46.052Z,98546.31
2022-10-31T04:42:07.616Z,98543.72
2022-10-31T04:44:12.111Z,98542.78
2022-10-31T04:46:15.110Z,98541.91
2022-10-31T04:48:18.650Z,98542.97
2022-10-31T04:50:22.114Z,98538.78
2022-10-31T04:52:25.096Z,98536.16
2022-10-31T04:54:28.980Z,98529.25
2022-10-31T04:56:57.939Z,98531.16
2022-10-31T04:59:00.980Z,98528.44
2022-10-31T05:01:10.575Z,98529.56
2022-10-31T05:03:13.701Z,98523.59
2022-10-31T05:05:18.295Z,98521.91
2022-10-31T05:07:21.800Z,98517.56
2022-10-31T05:09:25.951Z,98520.28
2022-10-31T05:11:29.422Z,98516.69
2022-10-31T05:13:41.762Z,98514.09
2022-10-31T05:16:07.929Z,98509.81
2022-10-31T05:18:18.521Z,98508.84
2022-10-31T05:20:40.235Z,98495.06
2022-10-31T05:22:54.112Z,98505.53
2022-10-31T05:24:57.272Z,98506.34
2022-10-31T05:27:00.170Z,98495.06
2022-10-31T05:29:03.101Z,98501.22
2022-10-31T05:31:06.609Z,98505.63
2022-10-31T05:33:09.605Z,98504.78
2022-10-31T05:35:25.949Z,98492.13
2022-10-31T05:37:46.555Z,98499.03
2022-10-31T05:39:49.785Z,98492.97
2022-10-31T05:41:54.118Z,98502.59
2022-10-31T05:44:01.736Z,98491.41
2022-10-31T05:46:06.914Z,98492.44
2022-10-31T05:48:28.380Z,98490.66
2022-10-31T05:50:51.544Z,98500.28
2022-10-31T05:52:58.143Z,98503.00
2022-10-31T05:55:07.481Z,98495.34
2022-10-31T05:57:10.503Z,98505.91
2022-10-31T05:59:13.831Z,98505.91
2022-10-31T06:01:17.303Z,98507.78
2022-10-31T06:03:22.087Z,98506.00
2022-10-31T06:05:33.482Z,98510.31
2022-10-31T06:07:38.698Z,98508.63
2022-10-31T06:09:42.001Z,98500.97
2022-10-31T06:11:44.970Z,98504.16
2022-10-31T06:14:08.230Z,98497.53
2022-10-31T06:16:19.759Z,98499.44
2022-10-31T06:18:22.821Z,98502.22
2022-10-31T06:20:28.357Z,98501.59
2022-10-31T06:22:40.141Z,98496.19
2022-10-31T06:24:43.091Z,98502.97
2022-10-31T06:27:01.940Z,98502.88
2022-10-31T06:29:05.248Z,98503.63
2022-10-31T06:31:31.410Z,98498.00
2022-10-31T06:33:34.914Z,98498.47
2022-10-31T06:35:38.515Z,98504.13
2022-10-31T06:37:44.458Z,98508.75
2022-10-31T06:40:04.183Z,98509.81
2022-10-31T06:42:12.940Z,98508.25
2022-10-31T06:44:16.096Z,98509.53
2022-10-31T06:46:21.958Z,98513.72
2022-10-31T06:48:37.513Z,98508.41
2022-10-31T06:50:59.787Z,98510.03
2022-10-31T06:53:05.003Z,98506.50
2022-10-31T06:55:08.576Z,98513.31
2022-10-31T06:57:11.920Z,98507.88
2022-10-31T06:59:15.884Z,98502.19
2022-10-31T07:01:37.845Z,98511.22
2022-10-31T07:03:41.201Z,98516.03
2022-10-31T07:05:45.334Z,98512.06
2022-10-31T07:07:48.734Z,98514.38
2022-10-31T07:09:53.290Z,98513.94
2022-10-31T07:12:07.610Z,98516.88
2022-10-31T07:14:14.535Z,98518.75
2022-10-31T07:16:18.557Z,98512.00
2022-10-31T07:18:23.169Z,98511.47
2022-10-31T07:20:26.144Z,98520.69
2022-10-31T07:22:34.679Z,98517.25
2022-10-31T07:24:37.720Z,98520.69
2022-10-31T07:26:57.236Z,98521.53
2022-10-31T07:29:01.067Z,98530.22
2022-10-31T07:31:04.913Z,98527.53
2022-10-31T07:33:08.252Z,98537.13
2022-10-31T07:35:31.402Z,98535.38
2022-10-31T07:37:35.609Z,98532.31
2022-10-31T07:39:38.783Z,98537.13
2022-10-31T07:41:43.269Z,98541.00
2022-10-31T07:43:48.073Z,98552.19
2022-10-31T07:45:54.255Z,98553.16
2022-10-31T07:48:20.372Z,98551.34
2022-10-31T07:50:49.714Z,98555.34
2022-10-31T07:53:00.609Z,98553.00
2022-10-31T07:55:24.005Z,98546.72
2022-10-31T07:57:31.912Z,98542.31
2022-10-31T07:59:38.778Z,98541.59
2022-10-31T08:01:43.229Z,98545.63
2022-10-31T08:04:04.821Z,98540.34
2022-10-31T08:06:28.672Z,98542.94
2022-10-31T08:08:50.182Z,98537.03
2022-10-31T08:10:54.379Z,98537.31
2022-10-31T08:12:58.901Z,98539.47
2022-10-31T08:15:03.721Z,98539.75
2022-10-31T08:17:06.874Z,98536.66
2022-10-31T08:19:18.754Z,98542.16
2022-10-31T08:21:21.746Z,98538.75
2022-10-31T08:23:24.891Z,98538.50
2022-10-31T08:25:35.291Z,98541.44
2022-10-31T08:27:41.483Z,98539.91
2022-10-31T08:29:52.246Z,98541.47
2022-10-31T08:31:56.662Z,98544.00
2022-10-31T08:34:18.413Z,98538.97
2022-10-31T08:36:45.884Z,98541.13
2022-10-31T08:39:01.874Z,98547.56
2022-10-31T08:41:06.407Z,98551.41
2022-10-31T08:43:13.688Z,98544.13
2022-10-31T08:45:17.048Z,98538.88
2022-10-31T08:47:21.395Z,98539.50
2022-10-31T08:49:24.887Z,98538.19
2022-10-31T08:51:28.476Z,98532.31
2022-10-31T08:53:33.153Z,98541.53
2022-10-31T08:55:57.196Z,98541.06
2022-10-31T08:58:02.375Z,98537.84
2022-10-31T09:00:14.058Z,98536.50
2022-10-31T09:02:46.675Z,98531.50
2022-10-31T09:04:51.775Z,98519.75
2022-10-31T09:07:24.919Z,98526.84
2022-10-31T09:09:24.388Z,98530.66
2022-10-31T09:11:28.987Z,98510.91
2022-10-31T09:13:47.968Z,98516.03
2022-10-31T09:16:26.128Z,98519.06
2022-10-31T09:18:32.854Z,98524.53
2022-10-31T09:20:41.192Z,98520.47
2022-10-31T09:22:44.695Z,98520.53
2022-10-31T09:24:47.992Z,98518.00
2022-10-31T09:26:51.035Z,98521.50
2022-10-31T09:29:02.869Z,98511.03
2022-10-31T09:31:06.873Z,98512.91
2022-10-31T09:33:36.470Z,98509.41
2022-10-31T09:36:00.548Z,98518.22
2022-10-31T09:38:05.588Z,98511.19
2022-10-31T09:40:10.469Z,98517.88
2022-10-31T09:42:45.901Z,98515.41
2022-10-31T09:45:03.509Z,98511.16
2022-10-31T09:47:16.518Z,98516.84
2022-10-31T09:49:42.178Z,98510.94
2022-10-31T09:51:52.701Z,98506.22
2022-10-31T09:54:07.361Z,98506.81
2022-10-31T09:56:13.009Z,98504.59
2022-10-31T09:58:18.565Z,98504.88
2022-10-31T10:00:24.018Z,98506.84
2022-10-31T10:02:31.443Z,98502.97
2022-10-31T10:04:43.866Z,98505.09
2022-10-31T10:07:00.355Z,98508.84
2022-10-31T10:09:26.493Z,98507.50
2022-10-31T10:11:57.368Z,98506.41
2022-10-31T10:14:10.034Z,98503.34
2022-10-31T10:16:28.176Z,98498.78
2022-10-31T10:18:40.899Z,98494.47
2022-10-31T10:20:57.128Z,98497.69
2022-10-31T10:23:14.172Z,98498.38
2022-10-31T10:25:25.505Z,98485.19
2022-10-31T10:27:38.635Z,98491.72
2022-10-31T10:29:48.565Z,98490.03
2022-10-31T10:31:55.621Z,98485.03
2022-10-31T10:34:09.752Z,98485.47
2022-10-31T10:36:16.566Z,98486.84
2022-10-31T10:38:26.231Z,98490.88
2022-10-31T10:40:29.977Z,98483.38
2022-10-31T10:42:50.695Z,98484.50
2022-10-31T10:45:11.184Z,98479.47
2022-10-31T10:47:33.432Z,98479.19
2022-10-31T10:49:42.522Z,98481.84
2022-10-31T10:52:02.185Z,98471.00
2022-10-31T10:54:38.625Z,98469.19
2022-10-31T10:56:53.295Z,98460.84
2022-10-31T10:58:57.405Z,98461.00
2022-10-31T11:01:03.485Z,98462.81
2022-10-31T11:03:07.128Z,98459.28
2022-10-31T11:05:17.957Z,98462.19
2022-10-31T11:07:22.731Z,98451.88
2022-10-31T11:09:25.958Z,98452.41
2022-10-31T11:11:32.036Z,98452.97
2022-10-31T11:13:36.701Z,98446.53
2022-10-31T11:15:51.458Z,98442.78
2022-10-31T11:17:56.890Z,98442.66
2022-10-31T11:20:08.413Z,98434.56
2022-10-31T11:22:18.660Z,98425.53
2022-10-31T11:24:26.375Z,98426.22
2022-10-31T11:26:29.594Z,98432.19
2022-10-31T11:28:36.084Z,98422.84
2022-10-31T11:30:46.136Z,98419.91
2022-10-31T11:32:53.417Z,98422.25
2022-10-31T11:34:58.554Z,98418.63
2022-10-31T11:37:05.449Z,98419.31
2022-10-31T11:39:18.658Z,98411.38
2022-10-31T11:41:29.157Z,98399.28
2022-10-31T11:43:32.361Z,98399.97
2022-10-31T11:45:37.750Z,98392.59
2022-10-31T11:47:44.205Z,98385.19
2022-10-31T11:49:50.365Z,98388.19
2022-10-31T11:51:56.327Z,98379.16
2022-10-31T11:54:03.218Z,98379.81
2022-10-31T11:56:12.472Z,98371.59
2022-10-31T11:58:25.553Z,98371.47
2022-10-31T12:00:31.126Z,98372.34
2022-10-31T12:02:34.206Z,98368.53
2022-10-31T12:04:42.301Z,98363.81
2022-10-31T12:06:47.874Z,98360.81
2022-10-31T12:08:51.322Z,98351.31
2022-10-31T12:11:02.582Z,98352.69
2022-10-31T12:13:13.670Z,98346.25
2022-10-31T12:15:29.321Z,98349.59
2022-10-31T12:17:38.511Z,98353.41
2022-10-31T12:19:45.174Z,98348.22
2022-10-31T12:21:58.655Z,98346.91
2022-10-31T12:24:10.086Z,98346.47
2022-10-31T12:26:18.522Z,98346.16
2022-10-31T12:28:46.443Z,98342.38
2022-10-31T12:31:00.156Z,98341.22
2022-10-31T12:33:19.049Z,98341.22
2022-10-31T12:35:44.000Z,98339.56
2022-10-31T12:38:00.777Z,98339.88
2022-10-31T12:40:34.138Z,98332.91
2022-10-31T12:42:50.824Z,98324.47
2022-10-31T12:45:03.856Z,98319.16
2022-10-31T12:47:21.253Z,98312.91
2022-10-31T12:49:41.119Z,98308.94
2022-10-31T12:51:51.762Z,98299.03
2022-10-31T12:54:16.326Z,98288.44
2022-10-31T12:56:38.661Z,98290.13
2022-10-31T12:58:47.770Z,98289.13
2022-10-31T13:00:53.768Z,98289.97
2022-10-31T13:02:59.849Z,98283.00
2022-10-31T13:05:06.918Z,98287.31
2022-10-31T13:07:13.561Z,98289.97
2022-10-31T13:09:20.109Z,98280.50
2022-10-31T13:11:26.135Z,98278.41
2022-10-31T13:13:33.443Z,98284.34
2022-10-31T13:15:46.996Z,98276.41
2022-10-31T13:17:52.217Z,98266.50
2022-10-31T13:20:05.612Z,98265.97
2022-10-31T13:22:10.764Z,98259.03
2022-10-31T13:24:18.422Z,98256.22
2022-10-31T13:26:26.101Z,98253.72
2022-10-31T13:28:35.809Z,98245.13
2022-10-31T13:30:41.948Z,98239.81
2022-10-31T13:32:47.929Z,98233.56
2022-10-31T13:34:58.148Z,98248.59
2022-10-31T13:37:08.496Z,98246.09
2022-10-31T13:39:22.848Z,98243.75
2022-10-31T13:41:34.806Z,98229.72
2022-10-31T13:43:49.189Z,98231.53
2022-10-31T13:45:53.860Z,98229.03
2022-10-31T13:47:59.453Z,98229.19
2022-10-31T13:50:08.086Z,98218.78
2022-10-31T13:52:19.013Z,98211.00
2022-10-31T13:54:24.596Z,98218.25
2022-10-31T13:56:29.589Z,98215.63
2022-10-31T13:58:33.928Z,98218.94
2022-10-31T14:00:37.371Z,98211.16
2022-10-31T14:02:48.370Z,98214.63
2022-10-31T14:07:00.823Z,98223.56
2022-10-31T14:09:05.482Z,98227.84
2022-10-31T14:11:22.219Z,98218.47
2022-10-31T14:13:32.776Z,98222.59
2022-10-31T14:15:36.758Z,98219.47
2022-10-31T14:17:53.998Z,98223.31
2022-10-31T14:20:22.523Z,98224.84
2022-10-31T14:22:25.743Z,98231.78
2022-10-31T14:24:38.374Z,98230.47
2022-10-31T14:26:42.167Z,98226.53
2022-10-31T14:28:45.955Z,98214.13
2022-10-31T14:30:58.861Z,98202.19
2022-10-31T14:33:05.069Z,98198.38
2022-10-31T14:35:20.296Z,98189.06
2022-10-31T14:37:53.911Z,98177.59
2022-10-31T14:40:08.572Z,98181.22
2022-10-31T14:42:21.887Z,98177.53
2022-10-31T14:45:03.210Z,98188.13
2022-10-31T14:47:15.093Z,98187.44
2022-10-31T14:49:27.515Z,98190.25
2022-10-31T14:51:35.959Z,98190.56
2022-10-31T14:53:46.360Z,98179.75
2022-10-31T14:55:55.213Z,98189.00
2022-10-31T14:58:02.138Z,98186.81
2022-10-31T15:00:07.944Z,98178.34
2022-10-31T15:02:15.722Z,98184.63
2022-10-31T15:04:25.058Z,98179.50
2022-10-31T15:06:33.652Z,98183.97
2022-10-31T15:08:40.431Z,98179.66
2022-10-31T15:10:47.083Z,98180.47
2022-10-31T15:12:51.612Z,98175.03
2022-10-31T15:14:55.053Z,98177.00
2022-10-31T15:16:59.632Z,98174.53
2022-10-31T15:19:17.495Z,98171.38
2022-10-31T15:21:22.565Z,98174.28
2022-10-31T15:23:27.030Z,98166.50
2022-10-31T15:25:33.123Z,98165.97
2022-10-31T15:27:36.326Z,98162.81
2022-10-31T15:29:50.627Z,98168.09
2022-10-31T15:31:55.372Z,98158.66
2022-10-31T15:34:02.273Z,98163.59
2022-10-31T15:36:05.764Z,98167.50
2022-10-31T15:38:10.378Z,98155.44
2022-10-31T15:40:17.903Z,98161.84
2022-10-31T15:42:23.791Z,98163.84
2022-10-31T15:44:31.197Z,98159.16
2022-10-31T15:46:35.895Z,98160.13
2022-10-31T15:48:40.180Z,98158.78
2022-10-31T15:50:47.411Z,98158.41
2022-10-31T15:52:51.307Z,98163.31
2022-10-31T15:54:57.444Z,98163.09
2022-10-31T15:57:02.896Z,98164.66
2022-10-31T15:59:07.077Z,98161.66
2022-10-31T16:01:23.228Z,98157.78
2022-10-31T16:03:29.358Z,98159.91
2022-10-31T16:05:38.101Z,98153.41
2022-10-31T16:07:50.540Z,98153.31
2022-10-31T16:09:56.931Z,98154.34
2022-10-31T16:12:01.026Z,98151.34
2022-10-31T16:14:08.141Z,98147.75
2022-10-31T16:16:34.179Z,98154.63
2022-10-31T16:18:41.174Z,98155.34
2022-10-31T16:20:53.620Z,98159.69
2022-10-31T16:22:58.379Z,98154.03
2022-10-31T16:25:07.908Z,98149.88
2022-10-31T16:27:20.423Z,98150.31
2022-10-31T16:29:30.054Z,98153.25
2022-10-31T16:31:38.926Z,98152.72
2022-10-31T16:33:44.301Z,98148.84
2022-10-31T16:35:47.363Z,98147.47
2022-10-31T16:37:50.508Z,98155.69
2022-10-31T16:39:53.457Z,98155.97
2022-10-31T16:41:57.950Z,98159.03
2022-10-31T16:44:02.877Z,98153.91
2022-10-31T16:46:06.112Z,98156.41
2022-10-31T16:48:15.795Z,98147.34
2022-10-31T16:50:22.794Z,98148.50
2022-10-31T16:52:25.871Z,98149.75
2022-10-31T16:54:30.835Z,98137.09
2022-10-31T16:56:36.405Z,98134.91
2022-10-31T16:58:39.557Z,98129.78
2022-10-31T17:00:42.725Z,98128.69
2022-10-31T17:02:46.262Z,98144.94
2022-10-31T17:04:52.172Z,98142.16
2022-10-31T17:07:00.054Z,98143.44
2022-10-31T17:09:03.466Z,98146.22
2022-10-31T17:11:07.284Z,98147.31
2022-10-31T17:13:16.548Z,98144.00
2022-10-31T17:15:21.343Z,98139.84
2022-10-31T17:17:24.360Z,98133.88
2022-10-31T17:19:27.583Z,98132.50
2022-10-31T17:21:30.863Z,98125.03
2022-10-31T17:23:35.961Z,98121.16
2022-10-31T17:25:39.269Z,98111.19
2022-10-31T17:27:44.947Z,98107.59
2022-10-31T17:29:50.433Z,98108.81
2022-10-31T17:31:53.457Z,98103.03
2022-10-31T17:34:02.145Z,98100.53
2022-10-31T17:36:07.601Z,98103.31
2022-10-31T17:38:10.580Z,98106.75
2022-10-31T17:40:17.030Z,98108.56
2022-10-31T17:42:20.036Z,98113.84
2022-10-31T17:44:23.073Z,98114.97
2022-10-31T17:46:26.175Z,98107.47
2022-10-31T17:48:29.405Z,98102.19
2022-10-31T17:50:32.537Z,98102.44
2022-10-31T17:52:35.756Z,98091.38
2022-10-31T17:54:38.746Z,98091.94
2022-10-31T17:56:43.215Z,98097.88
2022-10-31T17:58:46.256Z,98090.53
2022-10-31T18:00:51.336Z,98099.66
2022-10-31T18:02:54.641Z,98102.53
2022-10-31T18:04:57.723Z,98104.50
2022-10-31T18:07:00.872Z,98095.19
2022-10-31T18:09:04.659Z,98096.72
2022-10-31T18:11:09.963Z,98094.38
2022-10-31T18:13:14.861Z,98106.78
2022-10-31T18:15:18.708Z,98100.72
2022-10-31T18:17:22.385Z,98100.84
2022-10-31T18:19:25.915Z,98097.41
2022-10-31T18:21:29.470Z,98094.06
2022-10-31T18:23:32.732Z,98094.44
2022-10-31T18:25:38.837Z,98092.69
2022-10-31T18:27:41.873Z,98088.38
2022-10-31T18:29:46.289Z,98089.59
2022-10-31T18:31:51.303Z,98080.47
2022-10-31T18:33:54.570Z,98081.00
2022-10-31T18:35:57.861Z,98082.63
2022-10-31T18:38:03.219Z,98083.13
2022-10-31T18:40:08.449Z,98075.78
2022-10-31T18:42:12.879Z,98083.09
2022-10-31T18:44:17.051Z,98078.09
2022-10-31T18:46:22.448Z,98073.66
2022-10-31T18:48:28.334Z,98069.13
2022-10-31T18:50:32.188Z,98074.25
2022-10-31T18:52:35.834Z,98082.13
2022-10-31T18:54:39.314Z,98072.59
2022-10-31T18:56:42.570Z,98069.13
2022-10-31T18:58:45.566Z,98060.41
2022-10-31T19:00:48.718Z,98054.72
2022-10-31T19:02:56.359Z,98050.56
2022-10-31T19:04:59.751Z,98049.03
2022-10-31T19:07:02.995Z,98039.06
2022-10-31T19:09:09.382Z,98020.22
2022-10-31T19:11:13.932Z,98010.28
2022-10-31T19:13:16.983Z,97993.38
2022-10-31T19:15:20.034Z,97977.34
2022-10-31T19:17:25.080Z,97974.38
2022-10-31T19:19:29.689Z,97976.19
2022-10-31T19:21:32.955Z,97974.00
2022-10-31T19:23:36.424Z,97993.94
2022-10-31T19:25:39.613Z,98012.50
2022-10-31T19:27:42.866Z,98008.59
2022-10-31T19:29:45.936Z,98007.34
2022-10-31T19:31:49.401Z,98008.44
2022-10-31T19:33:52.782Z,98007.47
2022-10-31T19:36:00.413Z,98017.84
2022-10-31T19:38:03.783Z,98014.13
2022-10-31T19:40:10.102Z,98003.31
2022-10-31T19:42:13.607Z,98018.22
2022-10-31T19:44:16.763Z,98025.16
2022-10-31T19:46:33.826Z,98045.19
2022-10-31T19:48:44.461Z,98086.34
2022-10-31T19:50:47.515Z,98101.41
2022-10-31T19:52:51.874Z,98097.97
2022-10-31T19:54:55.050Z,98079.00
2022-10-31T19:56:58.043Z,98097.50
2022-10-31T19:59:02.966Z,98113.97
2022-10-31T20:01:08.932Z,98092.84
2022-10-31T20:03:12.302Z,98103.47
2022-10-31T20:05:15.545Z,98125.16
2022-10-31T20:07:18.496Z,98132.91
2022-10-31T20:09:22.946Z,98123.25
2022-10-31T20:11:27.734Z,98131.84
2022-10-31T20:13:31.929Z,98143.28
2022-10-31T20:15:35.356Z,98123.97
2022-10-31T20:17:38.864Z,98116.59
2022-10-31T20:19:42.258Z,98118.63
2022-10-31T20:21:45.695Z,98120.44
2022-10-31T20:23:48.957Z,98132.00
2022-10-31T20:25:53.796Z,98120.00
2022-10-31T20:27:57.291Z,98132.66
2022-10-31T20:30:00.487Z,98133.50
2022-10-31T20:32:03.972Z,98126.56
2022-10-31T20:34:07.288Z,98143.00
2022-10-31T20:36:10.924Z,98136.69
2022-10-31T20:38:14.270Z,98142.63
2022-10-31T20:40:17.329Z,98135.63
2022-10-31T20:42:21.955Z,98153.84
2022-10-31T20:44:25.327Z,98145.84
2022-10-31T20:46:28.617Z,98150.00
2022-10-31T20:48:32.387Z,98156.94
2022-10-31T20:50:35.488Z,98139.50
2022-10-31T20:52:40.483Z,98145.00
2022-10-31T20:54:43.616Z,98146.25
2022-10-31T20:56:46.823Z,98135.13
2022-10-31T20:58:51.849Z,98148.88
2022-10-31T21:00:55.052Z,98137.13
2022-10-31T21:02:58.205Z,98145.84
2022-10-31T21:05:01.881Z,98146.94
2022-10-31T21:07:05.117Z,98150.38
2022-10-31T21:09:08.856Z,98149.56
2022-10-31T21:11:14.186Z,98144.19
2022-10-31T21:13:17.779Z,98142.25
2022-10-31T21:15:22.284Z,98139.50
2022-10-31T21:17:25.439Z,98136.75
2022-10-31T21:19:28.447Z,98132.22
2022-10-31T21:21:33.388Z,98136.38
2022-10-31T21:23:36.720Z,98143.97
2022-10-31T21:25:40.652Z,98136.84
2022-10-31T21:27:43.976Z,98129.78
2022-10-31T21:29:46.971Z,98145.16
2022-10-31T21:31:51.986Z,98138.94
2022-10-31T21:33:55.476Z,98134.50
2022-10-31T21:35:58.471Z,98129.25
2022-10-31T21:38:02.074Z,98137.72
2022-10-31T21:40:06.265Z,98139.34
2022-10-31T21:42:09.357Z,98129.84
2022-10-31T21:44:12.542Z,98137.38
2022-10-31T21:46:17.179Z,98137.50
2022-10-31T21:48:21.666Z,98130.75
2022-10-31T21:50:25.056Z,98137.06
2022-10-31T21:52:28.324Z,98138.16
2022-10-31T21:54:32.958Z,98141.06
2022-10-31T21:56:36.648Z,98137.72
2022-10-31T21:58:39.722Z,98144.19
2022-10-31T22:00:42.974Z,98137.50
2022-10-31T22:02:46.113Z,98132.53
2022-10-31T22:04:51.442Z,98139.44
2022-10-31T22:06:57.315Z,98143.00
2022-10-31T22:09:01.913Z,98121.19
2022-10-31T22:11:05.697Z,98133.47
2022-10-31T22:13:09.047Z,98136.34
2022-10-31T22:15:12.215Z,98141.59
2022-10-31T22:17:15.287Z,98133.84
2022-10-31T22:19:18.561Z,98129.69
2022-10-31T22:21:25.173Z,98132.31
2022-10-31T22:23:28.773Z,98132.31
2022-10-31T22:25:31.978Z,98142.09
2022-10-31T22:27:38.665Z,98133.53
2022-10-31T22:29:41.967Z,98132.81
2022-10-31T22:31:50.610Z,98133.91
2022-10-31T22:33:57.603Z,98123.66
2022-10-31T22:36:02.918Z,98123.91
2022-10-31T22:38:07.365Z,98112.81
2022-10-31T22:40:11.891Z,98108.63
2022-10-31T22:42:14.987Z,98108.63
2022-10-31T22:44:18.257Z,98111.38
2022-10-31T22:46:23.057Z,98112.50
2022-10-31T22:48:26.279Z,98121.41
2022-10-31T22:50:29.235Z,98121.41
2022-10-31T22:52:32.419Z,98117.13
2022-10-31T22:54:36.779Z,98125.00
2022-10-31T22:56:39.752Z,98117.38
2022-10-31T22:58:43.434Z,98122.75
2022-10-31T23:00:49.602Z,98122.75
2022-10-31T23:02:52.723Z,98127.28
2022-10-31T23:04:55.997Z,98113.59
2022-10-31T23:06:59.039Z,98108.47
2022-10-31T23:09:07.417Z,98106.22
2022-10-31T23:11:22.287Z,98114.47
2022-10-31T23:13:43.066Z,98109.72
2022-10-31T23:15:46.545Z,98116.16
2022-10-31T23:17:49.829Z,98130.59
2022-10-31T23:19:53.298Z,98119.50
2022-10-31T23:22:00.859Z,98116.88
2022-10-31T23:24:04.547Z,98114.38
2022-10-31T23:26:25.724Z,98119.75
2022-10-31T23:28:30.287Z,98116.41
2022-10-31T23:30:33.735Z,98115.47
2022-10-31T23:32:39.288Z,98109.38
2022-10-31T23:34:42.821Z,98105.94
2022-10-31T23:36:45.974Z,98113.22
2022-10-31T23:38:55.279Z,98122.03
2022-10-31T23:40:58.449Z,98117.97
2022-10-31T23:43:01.592Z,98125.72
2022-10-31T23:45:07.091Z,98113.81
2022-10-31T23:47:10.250Z,98117.63
2022-10-31T23:49:13.262Z,98115.25
2022-10-31T23:51:19.133Z,98122.28
2022-10-31T23:53:22.304Z,98121.56
2022-10-31T23:55:26.026Z,98122.53
2022-10-31T23:57:29.165Z,98115.84
2022-10-31T23:59:33.177Z,98124.69
